Terminal Aerodrome Forecast
Issued by NWS Missoula, MT

Home | Current Version | Previous Version | Text Only | Print | Product List | Glossary On
Versions: 1 2 3 4 5 6 7 8 9 10 11 12 13 14 15 16 17 18 19 20 21 22 23 24 25 26
000
FTUS45 KMSO 272320
TAFGPI
TAF
KGPI 272320Z 2800/2824 00000KT P6SM BKN200
     FM280600 00000KT 3SM BR SCT002 BKN150
     FM280900 00000KT 4SM BR VCSH BKN050 OVC080
     FM281900 VRB03KT P6SM SCT050=

USA.gov is the U.S. government's official web portal to all federal, state and local government web resources and services.